createdAt,value
2022-09-28T00:00:17.310Z,7
2022-09-28T00:05:17.236Z,6
2022-09-28T00:10:17.132Z,7
2022-09-28T00:15:17.083Z,6
2022-09-28T00:20:17.089Z,7
2022-09-28T00:25:17.202Z,4
2022-09-28T00:30:17.168Z,4
2022-09-28T00:35:17.128Z,7
2022-09-28T00:40:17.318Z,6
2022-09-28T00:45:17.140Z,4
2022-09-28T00:50:17.164Z,5
2022-09-28T00:55:17.314Z,3
2022-09-28T01:00:17.354Z,4
2022-09-28T01:05:17.192Z,4
2022-09-28T01:10:17.259Z,6
2022-09-28T01:15:17.275Z,5
2022-09-28T01:20:17.382Z,6
2022-09-28T01:25:17.316Z,5
2022-09-28T01:30:17.338Z,5
2022-09-28T01:35:17.402Z,6
2022-09-28T01:40:17.399Z,5
2022-09-28T01:45:17.306Z,6
2022-09-28T01:50:17.269Z,4
2022-09-28T01:55:17.344Z,6
2022-09-28T02:00:17.455Z,4
2022-09-28T02:05:17.310Z,5
2022-09-28T02:10:17.410Z,4
2022-09-28T02:15:17.639Z,4
2022-09-28T02:20:17.310Z,5
2022-09-28T02:25:17.493Z,7
2022-09-28T02:30:15.404Z,6
2022-09-28T02:35:15.386Z,6
2022-09-28T02:40:15.516Z,5
2022-09-28T02:45:15.444Z,4
2022-09-28T02:50:15.386Z,5
2022-09-28T02:55:15.584Z,6
2022-09-28T03:00:15.508Z,6
2022-09-28T03:05:15.482Z,5
2022-09-28T03:10:15.493Z,4
2022-09-28T03:15:15.596Z,5
2022-09-28T03:20:15.553Z,5
2022-09-28T03:25:15.459Z,6
2022-09-28T03:30:15.621Z,7
2022-09-28T03:35:15.491Z,6
2022-09-28T03:40:15.686Z,6
2022-09-28T03:45:15.556Z,5
2022-09-28T03:50:15.528Z,7
2022-09-28T03:55:15.563Z,6
2022-09-28T04:00:16.558Z,9
2022-09-28T04:05:16.593Z,8
2022-09-28T04:10:16.800Z,6
2022-09-28T04:15:16.570Z,5
2022-09-28T04:20:16.514Z,5
2022-09-28T04:25:16.784Z,4
2022-09-28T04:30:16.738Z,4
2022-09-28T04:35:16.593Z,6
2022-09-28T04:40:16.785Z,4
2022-09-28T04:45:16.626Z,8
2022-09-28T04:50:16.655Z,5
2022-09-28T04:55:17.374Z,6
2022-09-28T05:00:16.855Z,6
2022-09-28T05:05:16.629Z,6
2022-09-28T05:10:16.761Z,5
2022-09-28T05:15:16.845Z,6
2022-09-28T05:20:16.704Z,7
2022-09-28T05:25:16.714Z,7
2022-09-28T05:30:16.836Z,7
2022-09-28T05:35:16.742Z,6
2022-09-28T05:40:16.873Z,6
2022-09-28T05:45:16.845Z,5
2022-09-28T05:50:16.779Z,6
2022-09-28T05:55:16.789Z,8
2022-09-28T06:00:16.776Z,6
2022-09-28T06:05:16.827Z,8
2022-09-28T06:10:16.844Z,6
2022-09-28T06:15:16.744Z,6
2022-09-28T06:20:16.771Z,6
2022-09-28T06:25:16.990Z,8
2022-09-28T06:30:16.889Z,8
2022-09-28T06:35:16.893Z,5
2022-09-28T06:40:16.930Z,5
2022-09-28T06:45:16.903Z,5
2022-09-28T06:50:16.996Z,6
2022-09-28T06:55:16.988Z,5
2022-09-28T07:00:16.913Z,4
2022-09-28T07:05:16.936Z,3
2022-09-28T07:10:16.883Z,2
2022-09-28T07:15:16.964Z,4
2022-09-28T07:20:19.448Z,4
2022-09-28T07:25:16.993Z,3
2022-09-28T07:30:16.993Z,3
2022-09-28T07:35:17.128Z,4
2022-09-28T07:40:17.210Z,4
2022-09-28T07:45:17.043Z,6
2022-09-28T07:50:17.053Z,7
2022-09-28T07:55:17.092Z,6
2022-09-28T08:00:17.032Z,7
2022-09-28T08:05:17.043Z,6
2022-09-28T08:10:17.086Z,6
2022-09-28T08:15:17.066Z,7
2022-09-28T08:20:17.010Z,6
2022-09-28T08:25:17.133Z,4
2022-09-28T08:30:17.237Z,5
2022-09-28T08:35:17.120Z,8
2022-09-28T08:40:17.149Z,10
2022-09-28T08:45:17.166Z,10
2022-09-28T08:50:17.288Z,7
2022-09-28T08:55:17.131Z,7
2022-09-28T09:00:17.260Z,8
2022-09-28T09:05:17.196Z,10
2022-09-28T09:10:17.328Z,7
2022-09-28T09:15:17.231Z,7
2022-09-28T09:20:17.250Z,9
2022-09-28T09:25:17.191Z,9
2022-09-28T09:30:19.988Z,8
2022-09-28T09:35:17.761Z,9
2022-09-28T09:40:17.423Z,9
2022-09-28T09:45:17.257Z,8
2022-09-28T09:50:17.325Z,8
2022-09-28T09:55:17.426Z,11
2022-09-28T10:00:17.307Z,11
2022-09-28T10:05:17.320Z,8
2022-09-28T10:10:17.565Z,8
2022-09-28T10:15:17.282Z,10
2022-09-28T10:20:17.414Z,10
2022-09-28T10:25:17.485Z,9
2022-09-28T10:30:17.554Z,8
2022-09-28T10:35:17.443Z,7
2022-09-28T10:40:17.411Z,7
2022-09-28T10:45:17.541Z,7
2022-09-28T10:50:15.397Z,5
2022-09-28T10:55:15.469Z,7
2022-09-28T11:00:15.470Z,8
2022-09-28T11:05:15.469Z,8
2022-09-28T11:10:15.503Z,9
2022-09-28T11:15:15.825Z,9
2022-09-28T11:20:15.526Z,7
2022-09-28T11:25:15.471Z,6
2022-09-28T11:30:15.580Z,7
2022-09-28T11:35:15.564Z,5
2022-09-28T11:40:15.594Z,4
2022-09-28T11:45:15.514Z,3
2022-09-28T11:50:17.065Z,8
2022-09-28T11:55:15.561Z,8
2022-09-28T12:00:15.690Z,7
2022-09-28T12:05:20.556Z,8
2022-09-28T12:10:15.676Z,9
2022-09-28T12:15:15.531Z,10
2022-09-28T12:20:16.495Z,10
2022-09-28T12:25:15.564Z,12
2022-09-28T12:30:15.639Z,12
2022-09-28T12:35:15.601Z,13
2022-09-28T12:40:15.929Z,13
2022-09-28T12:45:15.593Z,12
2022-09-28T12:50:57.140Z,12
2022-09-28T12:55:15.681Z,10
2022-09-28T13:00:15.614Z,11
2022-09-28T13:05:15.665Z,11
2022-09-28T13:10:15.714Z,10
2022-09-28T13:15:15.742Z,14
2022-09-28T13:20:15.718Z,13
2022-09-28T13:25:15.638Z,10
2022-09-28T13:30:15.676Z,11
2022-09-28T13:35:15.711Z,13
2022-09-28T13:40:15.984Z,14
2022-09-28T13:45:15.728Z,15
2022-09-28T13:50:15.721Z,18
2022-09-28T13:55:15.969Z,15
2022-09-28T14:00:15.949Z,16
2022-09-28T14:05:15.759Z,16
2022-09-28T14:10:15.776Z,16
2022-09-28T14:15:15.947Z,16
2022-09-28T14:20:15.951Z,16
2022-09-28T14:25:17.037Z,13
2022-09-28T14:30:15.881Z,13
2022-09-28T14:35:18.790Z,16
2022-09-28T14:40:16.123Z,13
2022-09-28T14:45:15.908Z,15
2022-09-28T14:50:15.881Z,15
2022-09-28T14:55:15.882Z,17
2022-09-28T15:00:15.920Z,14
2022-09-28T15:05:16.078Z,17
2022-09-28T15:10:15.988Z,15
2022-09-28T15:15:16.042Z,14
2022-09-28T15:20:15.955Z,15
2022-09-28T15:25:15.975Z,13
2022-09-28T15:30:15.955Z,13
2022-09-28T15:35:15.985Z,11
2022-09-28T15:40:16.260Z,13
2022-09-28T15:45:15.988Z,13
2022-09-28T15:50:16.078Z,13
2022-09-28T15:55:16.058Z,11
2022-09-28T16:00:16.047Z,15
2022-09-28T16:05:16.017Z,17
2022-09-28T16:10:16.027Z,13
2022-09-28T16:15:16.080Z,13
2022-09-28T16:20:16.207Z,12
2022-09-28T16:25:16.071Z,13
2022-09-28T16:30:16.074Z,13
2022-09-28T16:35:16.224Z,13
2022-09-28T16:40:16.264Z,13
2022-09-28T16:45:16.275Z,15
2022-09-28T16:50:16.100Z,15
2022-09-28T16:55:39.004Z,16
2022-09-28T17:00:16.105Z,17
2022-09-28T17:05:16.152Z,13
2022-09-28T17:10:16.247Z,13
2022-09-28T17:15:16.156Z,13
2022-09-28T17:20:16.175Z,12
2022-09-28T17:25:16.176Z,11
2022-09-28T17:30:16.207Z,9
2022-09-28T17:35:25.004Z,8
2022-09-28T17:40:16.263Z,8
2022-09-28T17:45:16.330Z,8
2022-09-28T17:50:16.248Z,6
2022-09-28T17:55:16.304Z,9
2022-09-28T18:00:16.263Z,10
2022-09-28T18:05:16.316Z,11
2022-09-28T18:10:16.302Z,8
2022-09-28T18:15:16.234Z,9
2022-09-28T18:20:16.245Z,9
2022-09-28T18:25:16.385Z,6
2022-09-28T18:30:16.321Z,4
2022-09-28T18:35:20.631Z,7
2022-09-28T18:40:16.478Z,6
2022-09-28T18:45:16.319Z,9
2022-09-28T18:50:16.373Z,9
2022-09-28T18:55:16.373Z,10
2022-09-28T19:00:16.471Z,10
2022-09-28T19:05:16.370Z,7
2022-09-28T19:10:16.536Z,9
2022-09-28T19:15:16.378Z,9
2022-09-28T19:20:16.500Z,9
2022-09-28T19:25:16.450Z,10
2022-09-28T19:30:16.440Z,9
2022-09-28T19:35:16.443Z,10
2022-09-28T19:40:16.603Z,9
2022-09-28T19:45:16.584Z,5
2022-09-28T19:50:16.580Z,5
2022-09-28T19:55:16.414Z,7
2022-09-28T20:00:16.442Z,7
2022-09-28T20:05:16.620Z,7
2022-09-28T20:10:16.445Z,7
2022-09-28T20:15:16.636Z,7
2022-09-28T20:20:19.589Z,9
2022-09-28T20:25:16.548Z,11
2022-09-28T20:30:16.640Z,12
2022-09-28T20:35:30.080Z,11
2022-09-28T20:40:16.629Z,12
2022-09-28T20:45:16.707Z,13
2022-09-28T20:50:16.579Z,12
2022-09-28T20:55:16.587Z,11
2022-09-28T21:00:16.792Z,10
2022-09-28T21:05:16.530Z,10
2022-09-28T21:10:16.583Z,9
2022-09-28T21:15:16.646Z,12
2022-09-28T21:20:16.671Z,11
2022-09-28T21:25:16.596Z,12
2022-09-28T21:30:16.696Z,10
2022-09-28T21:35:16.638Z,10
2022-09-28T21:40:16.746Z,11
2022-09-28T21:45:16.681Z,12
2022-09-28T21:50:16.750Z,12
2022-09-28T21:55:16.722Z,12
2022-09-28T22:00:16.728Z,13
2022-09-28T22:05:16.862Z,14
2022-09-28T22:10:16.797Z,15
2022-09-28T22:15:16.773Z,14
2022-09-28T22:20:16.693Z,14
2022-09-28T22:25:16.796Z,11
2022-09-28T22:30:16.739Z,10
2022-09-28T22:35:16.864Z,10
2022-09-28T22:40:16.906Z,10
2022-09-28T22:45:16.873Z,10
2022-09-28T22:50:17.992Z,10
2022-09-28T22:55:16.927Z,7
2022-09-28T23:00:16.907Z,10
2022-09-28T23:05:16.814Z,10
2022-09-28T23:10:17.201Z,8
2022-09-28T23:15:16.941Z,10
2022-09-28T23:20:16.889Z,7
2022-09-28T23:25:16.902Z,4
2022-09-28T23:30:17.000Z,5
2022-09-28T23:35:17.110Z,6
2022-09-28T23:40:17.033Z,4
2022-09-28T23:45:16.894Z,1
2022-09-28T23:50:16.951Z,5
2022-09-28T23:55:16.970Z,2
